sensor_id;sensor_type;location;lat;lon;timestamp;P1;durP1;ratioP1;P2;durP2;ratioP2
82777;SDS011;72510;45.128;20.734;2024-01-10T00:05:46;18.05;;;6.45;;
82777;SDS011;72510;45.128;20.734;2024-01-10T00:15:48;13.43;;;8.60;;
82777;SDS011;72510;45.128;20.734;2024-01-10T00:25:49;17.73;;;8.02;;
82777;SDS011;72510;45.128;20.734;2024-01-10T00:35:53;15.20;;;5.57;;
82777;SDS011;72510;45.128;20.734;2024-01-10T00:45:57;21.58;;;6.95;;
82777;SDS011;72510;45.128;20.734;2024-01-10T00:55:58;11.00;;;5.38;;
82777;SDS011;72510;45.128;20.734;2024-01-10T01:05:59;11.05;;;6.57;;
82777;SDS011;72510;45.128;20.734;2024-01-10T01:16:00;15.55;;;4.78;;
82777;SDS011;72510;45.128;20.734;2024-01-10T01:26:01;6.88;;;3.65;;
82777;SDS011;72510;45.128;20.734;2024-01-10T01:36:05;2.95;;;2.08;;
82777;SDS011;72510;45.128;20.734;2024-01-10T01:46:09;5.88;;;2.10;;
82777;SDS011;72510;45.128;20.734;2024-01-10T01:56:11;2.92;;;2.50;;
82777;SDS011;72510;45.128;20.734;2024-01-10T02:06:14;9.90;;;5.35;;
82777;SDS011;72510;45.128;20.734;2024-01-10T02:16:15;12.13;;;5.75;;
82777;SDS011;72510;45.128;20.734;2024-01-10T02:26:16;9.13;;;5.15;;
82777;SDS011;72510;45.128;20.734;2024-01-10T02:36:17;11.52;;;5.70;;
82777;SDS011;72510;45.128;20.734;2024-01-10T02:46:19;14.57;;;5.20;;
82777;SDS011;72510;45.128;20.734;2024-01-10T02:56:23;9.63;;;5.38;;
82777;SDS011;72510;45.128;20.734;2024-01-10T03:06:26;6.80;;;4.65;;
82777;SDS011;72510;45.128;20.734;2024-01-10T03:16:27;19.67;;;6.63;;
82777;SDS011;72510;45.128;20.734;2024-01-10T03:26:29;9.32;;;4.93;;
82777;SDS011;72510;45.128;20.734;2024-01-10T03:36:36;23.08;;;7.25;;
82777;SDS011;72510;45.128;20.734;2024-01-10T03:46:37;9.77;;;3.92;;
82777;SDS011;72510;45.128;20.734;2024-01-10T03:56:38;9.18;;;3.50;;
82777;SDS011;72510;45.128;20.734;2024-01-10T04:06:40;4.47;;;3.53;;
82777;SDS011;72510;45.128;20.734;2024-01-10T04:16:41;8.00;;;3.72;;
82777;SDS011;72510;45.128;20.734;2024-01-10T04:26:42;14.40;;;4.90;;
82777;SDS011;72510;45.128;20.734;2024-01-10T04:36:45;4.82;;;3.78;;
82777;SDS011;72510;45.128;20.734;2024-01-10T04:46:46;5.85;;;4.70;;
82777;SDS011;72510;45.128;20.734;2024-01-10T04:56:47;9.73;;;4.50;;
82777;SDS011;72510;45.128;20.734;2024-01-10T05:06:50;8.25;;;4.50;;
82777;SDS011;72510;45.128;20.734;2024-01-10T05:16:51;7.28;;;4.70;;
82777;SDS011;72510;45.128;20.734;2024-01-10T05:26:54;9.40;;;4.15;;
82777;SDS011;72510;45.128;20.734;2024-01-10T05:36:55;9.32;;;4.72;;
82777;SDS011;72510;45.128;20.734;2024-01-10T05:46:59;6.15;;;3.10;;
82777;SDS011;72510;45.128;20.734;2024-01-10T05:57:03;5.95;;;3.08;;
82777;SDS011;72510;45.128;20.734;2024-01-10T06:07:04;8.35;;;4.18;;
82777;SDS011;72510;45.128;20.734;2024-01-10T06:17:06;6.30;;;4.85;;
82777;SDS011;72510;45.128;20.734;2024-01-10T06:27:07;5.10;;;4.28;;
82777;SDS011;72510;45.128;20.734;2024-01-10T06:37:10;4.65;;;2.58;;
82777;SDS011;72510;45.128;20.734;2024-01-10T06:47:11;7.57;;;2.97;;
82777;SDS011;72510;45.128;20.734;2024-01-10T06:57:13;5.47;;;3.75;;
82777;SDS011;72510;45.128;20.734;2024-01-10T07:07:14;3.90;;;2.60;;
82777;SDS011;72510;45.128;20.734;2024-01-10T07:17:15;3.92;;;2.10;;
82777;SDS011;72510;45.128;20.734;2024-01-10T07:27:17;3.33;;;3.03;;
82777;SDS011;72510;45.128;20.734;2024-01-10T07:37:19;9.00;;;3.78;;
82777;SDS011;72510;45.128;20.734;2024-01-10T07:47:21;7.75;;;2.83;;
82777;SDS011;72510;45.128;20.734;2024-01-10T07:57:23;5.97;;;3.63;;
82777;SDS011;72510;45.128;20.734;2024-01-10T08:07:24;9.40;;;3.17;;
82777;SDS011;72510;45.128;20.734;2024-01-10T08:17:25;8.90;;;3.92;;
82777;SDS011;72510;45.128;20.734;2024-01-10T08:27:35;4.32;;;3.65;;
82777;SDS011;72510;45.128;20.734;2024-01-10T08:37:38;8.80;;;5.07;;
82777;SDS011;72510;45.128;20.734;2024-01-10T08:47:41;13.38;;;5.68;;
82777;SDS011;72510;45.128;20.734;2024-01-10T08:57:42;19.95;;;9.80;;
82777;SDS011;72510;45.128;20.734;2024-01-10T09:07:43;13.63;;;7.80;;
82777;SDS011;72510;45.128;20.734;2024-01-10T09:17:47;13.18;;;7.15;;
82777;SDS011;72510;45.128;20.734;2024-01-10T09:27:48;14.10;;;7.72;;
82777;SDS011;72510;45.128;20.734;2024-01-10T09:37:50;40.42;;;20.70;;
82777;SDS011;72510;45.128;20.734;2024-01-10T09:48:01;24.58;;;10.35;;
82777;SDS011;72510;45.128;20.734;2024-01-10T09:58:05;24.30;;;11.77;;
82777;SDS011;72510;45.128;20.734;2024-01-10T10:08:12;30.98;;;15.13;;
82777;SDS011;72510;45.128;20.734;2024-01-10T10:18:25;28.27;;;13.82;;
82777;SDS011;72510;45.128;20.734;2024-01-10T10:28:30;15.90;;;8.30;;
82777;SDS011;72510;45.128;20.734;2024-01-10T10:38:32;16.30;;;8.50;;
82777;SDS011;72510;45.128;20.734;2024-01-10T10:48:35;18.65;;;8.65;;
82777;SDS011;72510;45.128;20.734;2024-01-10T10:58:41;14.77;;;5.95;;
82777;SDS011;72510;45.128;20.734;2024-01-10T11:08:47;8.70;;;5.43;;
82777;SDS011;72510;45.128;20.734;2024-01-10T11:29:11;27.65;;;11.30;;
82777;SDS011;72510;45.128;20.734;2024-01-10T11:39:14;20.50;;;10.55;;
82777;SDS011;72510;45.128;20.734;2024-01-10T11:49:16;26.00;;;11.50;;
82777;SDS011;72510;45.128;20.734;2024-01-10T11:59:20;18.73;;;7.97;;
82777;SDS011;72510;45.128;20.734;2024-01-10T12:09:24;16.23;;;8.70;;
82777;SDS011;72510;45.128;20.734;2024-01-10T12:19:27;14.07;;;6.82;;
82777;SDS011;72510;45.128;20.734;2024-01-10T12:29:32;16.92;;;7.43;;
82777;SDS011;72510;45.128;20.734;2024-01-10T12:39:33;16.00;;;7.30;;
82777;SDS011;72510;45.128;20.734;2024-01-10T12:49:38;24.45;;;9.18;;
82777;SDS011;72510;45.128;20.734;2024-01-10T12:59:40;19.98;;;7.18;;
82777;SDS011;72510;45.128;20.734;2024-01-10T13:09:42;12.50;;;6.60;;
82777;SDS011;72510;45.128;20.734;2024-01-10T13:19:44;28.88;;;8.30;;
82777;SDS011;72510;45.128;20.734;2024-01-10T13:29:49;18.67;;;6.28;;
82777;SDS011;72510;45.128;20.734;2024-01-10T13:39:50;18.83;;;6.85;;
82777;SDS011;72510;45.128;20.734;2024-01-10T13:49:52;42.03;;;9.55;;
82777;SDS011;72510;45.128;20.734;2024-01-10T13:59:54;30.60;;;7.10;;
82777;SDS011;72510;45.128;20.734;2024-01-10T14:10:00;25.23;;;8.13;;
82777;SDS011;72510;45.128;20.734;2024-01-10T14:20:01;26.17;;;8.15;;
82777;SDS011;72510;45.128;20.734;2024-01-10T14:30:06;35.10;;;11.32;;
82777;SDS011;72510;45.128;20.734;2024-01-10T14:40:10;28.25;;;8.77;;
82777;SDS011;72510;45.128;20.734;2024-01-10T14:50:12;25.17;;;7.28;;
82777;SDS011;72510;45.128;20.734;2024-01-10T15:00:15;33.65;;;8.30;;
82777;SDS011;72510;45.128;20.734;2024-01-10T15:10:17;17.52;;;6.75;;
82777;SDS011;72510;45.128;20.734;2024-01-10T15:20:18;20.15;;;6.88;;
82777;SDS011;72510;45.128;20.734;2024-01-10T15:30:19;20.45;;;6.90;;
82777;SDS011;72510;45.128;20.734;2024-01-10T15:40:22;22.55;;;8.45;;
82777;SDS011;72510;45.128;20.734;2024-01-10T15:50:24;15.05;;;6.72;;
82777;SDS011;72510;45.128;20.734;2024-01-10T16:00:25;17.15;;;6.78;;
82777;SDS011;72510;45.128;20.734;2024-01-10T16:10:26;20.10;;;8.43;;
82777;SDS011;72510;45.128;20.734;2024-01-10T16:20:31;24.73;;;8.43;;
82777;SDS011;72510;45.128;20.734;2024-01-10T16:30:32;25.10;;;9.35;;
82777;SDS011;72510;45.128;20.734;2024-01-10T16:40:37;36.53;;;10.73;;
82777;SDS011;72510;45.128;20.734;2024-01-10T16:50:38;30.38;;;8.30;;
82777;SDS011;72510;45.128;20.734;2024-01-10T17:00:39;19.90;;;6.45;;
82777;SDS011;72510;45.128;20.734;2024-01-10T17:10:41;25.27;;;9.48;;
82777;SDS011;72510;45.128;20.734;2024-01-10T17:20:45;26.38;;;10.63;;
82777;SDS011;72510;45.128;20.734;2024-01-10T17:30:46;12.30;;;6.45;;
82777;SDS011;72510;45.128;20.734;2024-01-10T17:40:47;37.47;;;10.65;;
82777;SDS011;72510;45.128;20.734;2024-01-10T17:50:51;30.20;;;10.25;;
82777;SDS011;72510;45.128;20.734;2024-01-10T18:00:55;22.70;;;8.50;;
82777;SDS011;72510;45.128;20.734;2024-01-10T18:10:56;10.45;;;6.25;;
82777;SDS011;72510;45.128;20.734;2024-01-10T18:21:01;3.53;;;2.42;;
82777;SDS011;72510;45.128;20.734;2024-01-10T18:31:03;6.85;;;3.75;;
82777;SDS011;72510;45.128;20.734;2024-01-10T18:41:04;9.18;;;4.55;;
82777;SDS011;72510;45.128;20.734;2024-01-10T18:51:05;15.02;;;5.57;;
82777;SDS011;72510;45.128;20.734;2024-01-10T19:01:10;11.52;;;3.55;;
82777;SDS011;72510;45.128;20.734;2024-01-10T19:11:11;10.93;;;4.32;;
82777;SDS011;72510;45.128;20.734;2024-01-10T19:21:12;12.32;;;5.18;;
82777;SDS011;72510;45.128;20.734;2024-01-10T19:31:17;10.65;;;4.55;;
82777;SDS011;72510;45.128;20.734;2024-01-10T19:41:21;16.13;;;6.50;;
82777;SDS011;72510;45.128;20.734;2024-01-10T19:51:23;15.18;;;6.45;;
82777;SDS011;72510;45.128;20.734;2024-01-10T20:01:25;10.88;;;5.90;;
82777;SDS011;72510;45.128;20.734;2024-01-10T20:11:26;21.88;;;7.57;;
82777;SDS011;72510;45.128;20.734;2024-01-10T20:21:27;13.90;;;6.32;;
82777;SDS011;72510;45.128;20.734;2024-01-10T20:31:28;10.77;;;6.05;;
82777;SDS011;72510;45.128;20.734;2024-01-10T20:41:33;14.95;;;6.60;;
82777;SDS011;72510;45.128;20.734;2024-01-10T20:51:36;28.98;;;8.88;;
82777;SDS011;72510;45.128;20.734;2024-01-10T21:01:39;31.23;;;8.70;;
82777;SDS011;72510;45.128;20.734;2024-01-10T21:11:40;21.05;;;6.55;;
82777;SDS011;72510;45.128;20.734;2024-01-10T21:21:45;14.45;;;6.60;;
82777;SDS011;72510;45.128;20.734;2024-01-10T21:31:46;19.15;;;8.23;;
82777;SDS011;72510;45.128;20.734;2024-01-10T21:41:48;15.68;;;6.20;;
82777;SDS011;72510;45.128;20.734;2024-01-10T21:51:50;17.05;;;7.53;;
82777;SDS011;72510;45.128;20.734;2024-01-10T22:01:51;25.05;;;7.15;;
82777;SDS011;72510;45.128;20.734;2024-01-10T22:11:53;17.23;;;6.95;;
82777;SDS011;72510;45.128;20.734;2024-01-10T22:21:55;18.83;;;8.13;;
82777;SDS011;72510;45.128;20.734;2024-01-10T22:31:59;25.63;;;8.38;;
82777;SDS011;72510;45.128;20.734;2024-01-10T22:42:00;21.25;;;8.60;;
82777;SDS011;72510;45.128;20.734;2024-01-10T22:52:02;12.70;;;6.45;;
82777;SDS011;72510;45.128;20.734;2024-01-10T23:02:04;16.73;;;9.27;;
82777;SDS011;72510;45.128;20.734;2024-01-10T23:12:06;21.02;;;8.05;;
82777;SDS011;72510;45.128;20.734;2024-01-10T23:22:08;27.92;;;9.35;;
82777;SDS011;72510;45.128;20.734;2024-01-10T23:32:09;25.48;;;9.40;;
82777;SDS011;72510;45.128;20.734;2024-01-10T23:42:11;25.67;;;11.02;;
82777;SDS011;72510;45.128;20.734;2024-01-10T23:52:12;29.30;;;9.63;;
